sensor_id;sensor_type;location;lat;lon;timestamp;P1;durP1;ratioP1;P2;durP2;ratioP2
21806;SDS011;11065;50.786;7.840;2022-09-20T00:01:03;2.43;;;1.33;;
21806;SDS011;11065;50.786;7.840;2022-09-20T00:03:35;4.30;;;1.50;;
21806;SDS011;11065;50.786;7.840;2022-09-20T00:06:04;5.60;;;1.80;;
21806;SDS011;11065;50.786;7.840;2022-09-20T00:08:32;5.17;;;1.70;;
21806;SDS011;11065;50.786;7.840;2022-09-20T00:11:03;6.70;;;2.07;;
21806;SDS011;11065;50.786;7.840;2022-09-20T00:13:36;6.43;;;2.30;;
21806;SDS011;11065;50.786;7.840;2022-09-20T00:16:05;8.47;;;3.40;;
21806;SDS011;11065;50.786;7.840;2022-09-20T00:18:33;8.47;;;3.60;;
21806;SDS011;11065;50.786;7.840;2022-09-20T00:21:01;8.07;;;3.70;;
21806;SDS011;11065;50.786;7.840;2022-09-20T00:23:29;9.17;;;3.93;;
21806;SDS011;11065;50.786;7.840;2022-09-20T00:25:56;7.63;;;4.50;;
21806;SDS011;11065;50.786;7.840;2022-09-20T00:28:27;8.20;;;4.07;;
21806;SDS011;11065;50.786;7.840;2022-09-20T00:30:55;7.73;;;3.80;;
21806;SDS011;11065;50.786;7.840;2022-09-20T00:33:23;9.90;;;4.10;;
21806;SDS011;11065;50.786;7.840;2022-09-20T00:36:10;8.83;;;4.53;;
21806;SDS011;11065;50.786;7.840;2022-09-20T00:38:37;12.47;;;5.47;;
21806;SDS011;11065;50.786;7.840;2022-09-20T00:41:04;11.03;;;6.27;;
21806;SDS011;11065;50.786;7.840;2022-09-20T00:43:48;13.23;;;5.47;;
21806;SDS011;11065;50.786;7.840;2022-09-20T00:46:26;10.73;;;4.80;;
21806;SDS011;11065;50.786;7.840;2022-09-20T00:49:16;8.57;;;4.37;;
21806;SDS011;11065;50.786;7.840;2022-09-20T00:51:53;10.17;;;3.70;;
21806;SDS011;11065;50.786;7.840;2022-09-20T00:54:23;6.13;;;3.03;;
21806;SDS011;11065;50.786;7.840;2022-09-20T00:56:50;6.00;;;2.40;;
21806;SDS011;11065;50.786;7.840;2022-09-20T00:59:25;5.00;;;2.23;;
21806;SDS011;11065;50.786;7.840;2022-09-20T01:02:04;4.73;;;1.73;;
21806;SDS011;11065;50.786;7.840;2022-09-20T01:04:35;4.90;;;2.03;;
21806;SDS011;11065;50.786;7.840;2022-09-20T01:07:05;3.40;;;1.60;;
21806;SDS011;11065;50.786;7.840;2022-09-20T01:09:34;5.97;;;1.50;;
21806;SDS011;11065;50.786;7.840;2022-09-20T01:12:05;7.80;;;1.90;;
21806;SDS011;11065;50.786;7.840;2022-09-20T01:14:38;5.00;;;1.70;;
21806;SDS011;11065;50.786;7.840;2022-09-20T01:17:07;3.63;;;1.53;;
21806;SDS011;11065;50.786;7.840;2022-09-20T01:19:40;4.13;;;1.67;;
21806;SDS011;11065;50.786;7.840;2022-09-20T01:22:20;4.73;;;2.13;;
21806;SDS011;11065;50.786;7.840;2022-09-20T01:25:14;4.13;;;2.00;;
21806;SDS011;11065;50.786;7.840;2022-09-20T01:27:49;4.20;;;1.80;;
21806;SDS011;11065;50.786;7.840;2022-09-20T01:30:30;3.17;;;1.60;;
21806;SDS011;11065;50.786;7.840;2022-09-20T01:36:05;38.70;;;4.33;;
21806;SDS011;11065;50.786;7.840;2022-09-20T01:39:35;10.23;;;2.07;;
21806;SDS011;11065;50.786;7.840;2022-09-20T01:41:34;11.07;;;1.90;;
21806;SDS011;11065;50.786;7.840;2022-09-20T01:44:20;13.37;;;2.33;;
21806;SDS011;11065;50.786;7.840;2022-09-20T01:47:30;11.77;;;2.07;;
21806;SDS011;11065;50.786;7.840;2022-09-20T01:58:09;6.27;;;1.60;;
21806;SDS011;11065;50.786;7.840;2022-09-20T02:01:05;9.73;;;1.63;;
21806;SDS011;11065;50.786;7.840;2022-09-20T02:03:52;2.53;;;1.10;;
21806;SDS011;11065;50.786;7.840;2022-09-20T02:09:19;8.10;;;1.37;;
21806;SDS011;11065;50.786;7.840;2022-09-20T02:21:04;13.90;;;1.77;;
21806;SDS011;11065;50.786;7.840;2022-09-20T02:27:10;26.83;;;2.20;;
21806;SDS011;11065;50.786;7.840;2022-09-20T02:40:23;7.57;;;1.80;;
21806;SDS011;11065;50.786;7.840;2022-09-20T02:43:42;14.23;;;2.13;;
21806;SDS011;11065;50.786;7.840;2022-09-20T02:48:57;9.73;;;1.57;;
21806;SDS011;11065;50.786;7.840;2022-09-20T02:52:10;3.43;;;1.20;;
21806;SDS011;11065;50.786;7.840;2022-09-20T02:54:56;3.20;;;1.00;;
21806;SDS011;11065;50.786;7.840;2022-09-20T03:00:37;4.07;;;1.87;;
21806;SDS011;11065;50.786;7.840;2022-09-20T03:03:20;6.03;;;2.00;;
21806;SDS011;11065;50.786;7.840;2022-09-20T03:08:37;6.47;;;1.77;;
21806;SDS011;11065;50.786;7.840;2022-09-20T03:11:30;16.73;;;2.00;;
21806;SDS011;11065;50.786;7.840;2022-09-20T03:14:18;2.10;;;1.27;;
21806;SDS011;11065;50.786;7.840;2022-09-20T03:20:02;4.37;;;1.20;;
21806;SDS011;11065;50.786;7.840;2022-09-20T03:22:48;1.47;;;1.13;;
21806;SDS011;11065;50.786;7.840;2022-09-20T03:25:56;18.87;;;2.70;;
21806;SDS011;11065;50.786;7.840;2022-09-20T03:28:49;1.63;;;1.00;;
21806;SDS011;11065;50.786;7.840;2022-09-20T03:34:27;3.57;;;1.70;;
21806;SDS011;11065;50.786;7.840;2022-09-20T03:37:41;4.63;;;2.30;;
21806;SDS011;11065;50.786;7.840;2022-09-20T03:46:27;4.50;;;2.50;;
21806;SDS011;11065;50.786;7.840;2022-09-20T04:05:44;4.90;;;2.83;;
21806;SDS011;11065;50.786;7.840;2022-09-20T04:08:36;3.87;;;2.07;;
21806;SDS011;11065;50.786;7.840;2022-09-20T04:16:51;3.47;;;2.00;;
21806;SDS011;11065;50.786;7.840;2022-09-20T04:22:03;4.00;;;1.53;;
21806;SDS011;11065;50.786;7.840;2022-09-20T04:27:26;2.37;;;1.50;;
21806;SDS011;11065;50.786;7.840;2022-09-20T04:29:59;3.13;;;1.77;;
21806;SDS011;11065;50.786;7.840;2022-09-20T04:32:35;3.10;;;1.80;;
21806;SDS011;11065;50.786;7.840;2022-09-20T04:38:15;4.23;;;2.00;;
21806;SDS011;11065;50.786;7.840;2022-09-20T04:40:53;2.80;;;1.67;;
21806;SDS011;11065;50.786;7.840;2022-09-20T04:55:29;5.07;;;3.20;;
21806;SDS011;11065;50.786;7.840;2022-09-20T05:23:38;4.37;;;2.73;;
21806;SDS011;11065;50.786;7.840;2022-09-20T05:26:18;6.07;;;2.80;;
21806;SDS011;11065;50.786;7.840;2022-09-20T05:29:16;4.40;;;2.33;;
21806;SDS011;11065;50.786;7.840;2022-09-20T05:31:55;4.40;;;2.37;;
21806;SDS011;11065;50.786;7.840;2022-09-20T05:34:33;5.03;;;2.70;;
21806;SDS011;11065;50.786;7.840;2022-09-20T05:40:11;5.03;;;3.30;;
21806;SDS011;11065;50.786;7.840;2022-09-20T05:46:16;4.73;;;2.43;;
21806;SDS011;11065;50.786;7.840;2022-09-20T05:49:14;4.07;;;2.73;;
21806;SDS011;11065;50.786;7.840;2022-09-20T05:55:06;3.70;;;2.40;;
21806;SDS011;11065;50.786;7.840;2022-09-20T05:58:17;3.77;;;2.10;;
21806;SDS011;11065;50.786;7.840;2022-09-20T06:00:51;4.73;;;2.90;;
21806;SDS011;11065;50.786;7.840;2022-09-20T06:14:38;3.57;;;2.17;;
21806;SDS011;11065;50.786;7.840;2022-09-20T06:17:32;3.90;;;2.20;;
21806;SDS011;11065;50.786;7.840;2022-09-20T06:22:37;4.30;;;3.00;;
21806;SDS011;11065;50.786;7.840;2022-09-20T06:25:22;5.17;;;3.40;;
21806;SDS011;11065;50.786;7.840;2022-09-20T06:28:17;5.47;;;3.63;;
21806;SDS011;11065;50.786;7.840;2022-09-20T06:33:15;12.87;;;7.37;;
21806;SDS011;11065;50.786;7.840;2022-09-20T06:41:47;10.33;;;7.20;;
21806;SDS011;11065;50.786;7.840;2022-09-20T06:44:16;15.83;;;8.00;;
21806;SDS011;11065;50.786;7.840;2022-09-20T06:46:42;13.10;;;8.63;;
21806;SDS011;11065;50.786;7.840;2022-09-20T06:49:09;14.33;;;9.27;;
21806;SDS011;11065;50.786;7.840;2022-09-20T06:51:36;14.03;;;8.70;;
21806;SDS011;11065;50.786;7.840;2022-09-20T06:54:06;13.90;;;8.90;;
21806;SDS011;11065;50.786;7.840;2022-09-20T06:56:39;16.20;;;9.13;;
21806;SDS011;11065;50.786;7.840;2022-09-20T06:59:06;12.87;;;8.17;;
21806;SDS011;11065;50.786;7.840;2022-09-20T07:01:33;16.20;;;9.43;;
21806;SDS011;11065;50.786;7.840;2022-09-20T07:04:01;17.57;;;10.37;;
21806;SDS011;11065;50.786;7.840;2022-09-20T07:06:28;20.23;;;11.57;;
21806;SDS011;11065;50.786;7.840;2022-09-20T07:08:55;18.70;;;11.20;;
21806;SDS011;11065;50.786;7.840;2022-09-20T07:11:22;20.23;;;11.93;;
21806;SDS011;11065;50.786;7.840;2022-09-20T07:13:49;19.50;;;10.93;;
21806;SDS011;11065;50.786;7.840;2022-09-20T07:16:17;20.50;;;11.40;;
21806;SDS011;11065;50.786;7.840;2022-09-20T07:18:45;21.07;;;12.10;;
21806;SDS011;11065;50.786;7.840;2022-09-20T07:21:14;19.30;;;11.33;;
21806;SDS011;11065;50.786;7.840;2022-09-20T07:23:42;19.63;;;11.43;;
21806;SDS011;11065;50.786;7.840;2022-09-20T07:26:21;19.07;;;11.90;;
21806;SDS011;11065;50.786;7.840;2022-09-20T07:28:50;19.33;;;11.43;;
21806;SDS011;11065;50.786;7.840;2022-09-20T07:31:18;22.97;;;12.47;;
21806;SDS011;11065;50.786;7.840;2022-09-20T07:33:46;19.53;;;11.93;;
21806;SDS011;11065;50.786;7.840;2022-09-20T07:36:14;19.20;;;11.03;;
21806;SDS011;11065;50.786;7.840;2022-09-20T07:38:48;21.23;;;12.27;;
21806;SDS011;11065;50.786;7.840;2022-09-20T07:41:15;19.73;;;12.57;;
21806;SDS011;11065;50.786;7.840;2022-09-20T07:43:48;20.30;;;11.70;;
21806;SDS011;11065;50.786;7.840;2022-09-20T07:46:15;21.53;;;12.77;;
21806;SDS011;11065;50.786;7.840;2022-09-20T07:48:43;19.17;;;12.03;;
21806;SDS011;11065;50.786;7.840;2022-09-20T07:51:11;22.03;;;12.50;;
21806;SDS011;11065;50.786;7.840;2022-09-20T07:53:38;22.10;;;12.13;;
21806;SDS011;11065;50.786;7.840;2022-09-20T07:56:07;22.10;;;12.30;;
21806;SDS011;11065;50.786;7.840;2022-09-20T07:58:37;21.13;;;12.47;;
21806;SDS011;11065;50.786;7.840;2022-09-20T08:01:04;23.10;;;13.17;;
21806;SDS011;11065;50.786;7.840;2022-09-20T08:03:46;24.77;;;12.97;;
21806;SDS011;11065;50.786;7.840;2022-09-20T08:06:13;21.33;;;12.93;;
21806;SDS011;11065;50.786;7.840;2022-09-20T08:08:41;20.07;;;12.93;;
21806;SDS011;11065;50.786;7.840;2022-09-20T08:13:37;20.67;;;12.50;;
21806;SDS011;11065;50.786;7.840;2022-09-20T08:16:30;18.17;;;11.97;;
21806;SDS011;11065;50.786;7.840;2022-09-20T08:18:58;20.23;;;11.77;;
21806;SDS011;11065;50.786;7.840;2022-09-20T08:21:28;19.97;;;11.67;;
21806;SDS011;11065;50.786;7.840;2022-09-20T08:23:57;17.63;;;11.07;;
21806;SDS011;11065;50.786;7.840;2022-09-20T08:26:25;18.10;;;12.30;;
21806;SDS011;11065;50.786;7.840;2022-09-20T08:28:54;19.73;;;12.23;;
21806;SDS011;11065;50.786;7.840;2022-09-20T08:31:23;18.57;;;11.37;;
21806;SDS011;11065;50.786;7.840;2022-09-20T08:33:52;18.43;;;11.47;;
21806;SDS011;11065;50.786;7.840;2022-09-20T08:36:20;19.57;;;12.77;;
21806;SDS011;11065;50.786;7.840;2022-09-20T08:38:49;16.73;;;10.80;;
21806;SDS011;11065;50.786;7.840;2022-09-20T08:41:43;15.73;;;10.38;;
21806;SDS011;11065;50.786;7.840;2022-09-20T08:46:49;15.30;;;10.32;;
21806;SDS011;11065;50.786;7.840;2022-09-20T08:49:41;14.93;;;10.77;;
21806;SDS011;11065;50.786;7.840;2022-09-20T08:52:27;12.93;;;8.85;;
21806;SDS011;11065;50.786;7.840;2022-09-20T08:55:02;11.05;;;7.50;;
21806;SDS011;11065;50.786;7.840;2022-09-20T08:57:54;11.50;;;7.88;;
21806;SDS011;11065;50.786;7.840;2022-09-20T09:00:27;10.35;;;7.32;;
21806;SDS011;11065;50.786;7.840;2022-09-20T09:02:59;9.70;;;6.75;;
21806;SDS011;11065;50.786;7.840;2022-09-20T09:05:34;9.60;;;7.60;;
21806;SDS011;11065;50.786;7.840;2022-09-20T09:08:26;8.88;;;6.32;;
21806;SDS011;11065;50.786;7.840;2022-09-20T09:11:07;8.20;;;5.57;;
21806;SDS011;11065;50.786;7.840;2022-09-20T09:16:15;7.60;;;5.40;;
21806;SDS011;11065;50.786;7.840;2022-09-20T09:18:51;7.80;;;6.03;;
21806;SDS011;11065;50.786;7.840;2022-09-20T09:21:19;8.45;;;5.40;;
21806;SDS011;11065;50.786;7.840;2022-09-20T09:23:51;7.47;;;5.38;;
21806;SDS011;11065;50.786;7.840;2022-09-20T09:26:26;7.68;;;4.47;;
21806;SDS011;11065;50.786;7.840;2022-09-20T09:31:41;6.47;;;3.88;;
21806;SDS011;11065;50.786;7.840;2022-09-20T09:36:55;5.40;;;3.53;;
21806;SDS011;11065;50.786;7.840;2022-09-20T09:39:26;7.63;;;3.58;;
21806;SDS011;11065;50.786;7.840;2022-09-20T09:41:55;9.13;;;3.63;;
21806;SDS011;11065;50.786;7.840;2022-09-20T09:44:27;6.18;;;3.22;;
21806;SDS011;11065;50.786;7.840;2022-09-20T09:46:59;5.90;;;3.55;;
21806;SDS011;11065;50.786;7.840;2022-09-20T09:49:26;6.23;;;2.73;;
21806;SDS011;11065;50.786;7.840;2022-09-20T09:54:39;8.40;;;3.63;;
21806;SDS011;11065;50.786;7.840;2022-09-20T10:02:22;6.10;;;3.30;;
21806;SDS011;11065;50.786;7.840;2022-09-20T10:05:01;7.77;;;2.90;;
21806;SDS011;11065;50.786;7.840;2022-09-20T10:07:40;7.63;;;2.77;;
21806;SDS011;11065;50.786;7.840;2022-09-20T10:15:55;6.70;;;3.10;;
21806;SDS011;11065;50.786;7.840;2022-09-20T10:21:05;5.27;;;2.50;;
21806;SDS011;11065;50.786;7.840;2022-09-20T10:26:38;7.10;;;3.10;;
21806;SDS011;11065;50.786;7.840;2022-09-20T10:34:37;3.70;;;2.40;;
21806;SDS011;11065;50.786;7.840;2022-09-20T10:42:44;4.83;;;2.63;;
21806;SDS011;11065;50.786;7.840;2022-09-20T10:45:52;5.87;;;3.20;;
21806;SDS011;11065;50.786;7.840;2022-09-20T10:48:50;5.43;;;2.57;;
21806;SDS011;11065;50.786;7.840;2022-09-20T10:52:07;5.00;;;2.53;;
21806;SDS011;11065;50.786;7.840;2022-09-20T10:57:45;6.30;;;3.75;;
21806;SDS011;11065;50.786;7.840;2022-09-20T11:00:24;10.45;;;2.85;;
21806;SDS011;11065;50.786;7.840;2022-09-20T11:08:46;3.08;;;1.50;;
21806;SDS011;11065;50.786;7.840;2022-09-20T11:11:24;4.53;;;1.48;;
21806;SDS011;11065;50.786;7.840;2022-09-20T11:14:05;3.25;;;1.15;;
21806;SDS011;11065;50.786;7.840;2022-09-20T11:16:39;2.97;;;0.95;;
21806;SDS011;11065;50.786;7.840;2022-09-20T11:25:15;4.13;;;1.25;;
21806;SDS011;11065;50.786;7.840;2022-09-20T11:27:51;1.92;;;0.88;;
21806;SDS011;11065;50.786;7.840;2022-09-20T11:30:23;2.47;;;0.57;;
21806;SDS011;11065;50.786;7.840;2022-09-20T11:32:55;2.55;;;0.80;;
21806;SDS011;11065;50.786;7.840;2022-09-20T11:38:17;2.57;;;0.73;;
21806;SDS011;11065;50.786;7.840;2022-09-20T11:40:54;2.57;;;0.90;;
21806;SDS011;11065;50.786;7.840;2022-09-20T11:43:30;2.10;;;0.70;;
21806;SDS011;11065;50.786;7.840;2022-09-20T11:45:59;2.37;;;0.60;;
21806;SDS011;11065;50.786;7.840;2022-09-20T11:48:38;2.60;;;0.57;;
21806;SDS011;11065;50.786;7.840;2022-09-20T11:56:29;1.67;;;0.50;;
21806;SDS011;11065;50.786;7.840;2022-09-20T11:59:03;1.43;;;0.60;;
21806;SDS011;11065;50.786;7.840;2022-09-20T12:01:39;1.63;;;0.70;;
21806;SDS011;11065;50.786;7.840;2022-09-20T12:04:10;1.37;;;0.60;;
21806;SDS011;11065;50.786;7.840;2022-09-20T12:07:03;1.43;;;0.40;;
21806;SDS011;11065;50.786;7.840;2022-09-20T12:09:38;2.07;;;0.47;;
21806;SDS011;11065;50.786;7.840;2022-09-20T12:12:12;1.27;;;0.47;;
21806;SDS011;11065;50.786;7.840;2022-09-20T12:14:40;2.03;;;0.47;;
21806;SDS011;11065;50.786;7.840;2022-09-20T12:17:57;1.13;;;0.47;;
21806;SDS011;11065;50.786;7.840;2022-09-20T12:26:03;1.30;;;0.40;;
21806;SDS011;11065;50.786;7.840;2022-09-20T12:28:36;1.53;;;0.70;;
21806;SDS011;11065;50.786;7.840;2022-09-20T12:36:41;4.07;;;0.83;;
21806;SDS011;11065;50.786;7.840;2022-09-20T12:39:22;2.53;;;0.63;;
21806;SDS011;11065;50.786;7.840;2022-09-20T12:44:39;1.97;;;1.00;;
21806;SDS011;11065;50.786;7.840;2022-09-20T12:55:30;2.07;;;0.70;;
21806;SDS011;11065;50.786;7.840;2022-09-20T12:58:19;3.87;;;0.87;;
21806;SDS011;11065;50.786;7.840;2022-09-20T13:03:26;2.17;;;1.03;;
21806;SDS011;11065;50.786;7.840;2022-09-20T13:14:24;2.27;;;0.90;;
21806;SDS011;11065;50.786;7.840;2022-09-20T13:19:44;2.43;;;0.80;;
21806;SDS011;11065;50.786;7.840;2022-09-20T13:22:29;2.57;;;0.90;;
21806;SDS011;11065;50.786;7.840;2022-09-20T13:25:03;2.67;;;0.83;;
21806;SDS011;11065;50.786;7.840;2022-09-20T13:27:33;3.03;;;1.13;;
21806;SDS011;11065;50.786;7.840;2022-09-20T13:32:47;3.07;;;1.10;;
21806;SDS011;11065;50.786;7.840;2022-09-20T13:35:16;4.13;;;1.00;;
21806;SDS011;11065;50.786;7.840;2022-09-20T13:40:35;2.50;;;0.83;;
21806;SDS011;11065;50.786;7.840;2022-09-20T13:43:05;2.00;;;0.83;;
21806;SDS011;11065;50.786;7.840;2022-09-20T13:45:56;3.37;;;1.00;;
21806;SDS011;11065;50.786;7.840;2022-09-20T13:48:25;2.17;;;0.80;;
21806;SDS011;11065;50.786;7.840;2022-09-20T13:50:54;4.23;;;1.00;;
21806;SDS011;11065;50.786;7.840;2022-09-20T13:53:22;1.87;;;0.77;;
21806;SDS011;11065;50.786;7.840;2022-09-20T13:56:20;4.47;;;1.30;;
21806;SDS011;11065;50.786;7.840;2022-09-20T13:58:50;3.03;;;0.83;;
21806;SDS011;11065;50.786;7.840;2022-09-20T14:01:28;3.10;;;1.07;;
21806;SDS011;11065;50.786;7.840;2022-09-20T14:04:06;4.30;;;1.30;;
21806;SDS011;11065;50.786;7.840;2022-09-20T14:06:38;1.73;;;0.90;;
21806;SDS011;11065;50.786;7.840;2022-09-20T14:09:05;1.53;;;0.80;;
21806;SDS011;11065;50.786;7.840;2022-09-20T14:11:40;4.27;;;1.13;;
21806;SDS011;11065;50.786;7.840;2022-09-20T14:14:07;3.03;;;0.90;;
21806;SDS011;11065;50.786;7.840;2022-09-20T14:16:37;2.63;;;1.10;;
21806;SDS011;11065;50.786;7.840;2022-09-20T14:19:06;3.40;;;1.10;;
21806;SDS011;11065;50.786;7.840;2022-09-20T14:21:34;3.20;;;1.00;;
21806;SDS011;11065;50.786;7.840;2022-09-20T14:27:04;2.00;;;1.07;;
21806;SDS011;11065;50.786;7.840;2022-09-20T14:29:48;2.13;;;0.80;;
21806;SDS011;11065;50.786;7.840;2022-09-20T14:37:28;2.73;;;1.30;;
21806;SDS011;11065;50.786;7.840;2022-09-20T14:39:59;2.20;;;1.07;;
21806;SDS011;11065;50.786;7.840;2022-09-20T14:42:51;2.30;;;0.80;;
21806;SDS011;11065;50.786;7.840;2022-09-20T14:50:30;1.70;;;0.90;;
21806;SDS011;11065;50.786;7.840;2022-09-20T14:52:58;2.33;;;0.77;;
21806;SDS011;11065;50.786;7.840;2022-09-20T14:55:38;4.63;;;1.00;;
21806;SDS011;11065;50.786;7.840;2022-09-20T14:58:11;2.23;;;0.83;;
21806;SDS011;11065;50.786;7.840;2022-09-20T15:00:55;3.97;;;1.43;;
21806;SDS011;11065;50.786;7.840;2022-09-20T15:03:29;2.33;;;0.80;;
21806;SDS011;11065;50.786;7.840;2022-09-20T15:06:04;2.00;;;0.87;;
21806;SDS011;11065;50.786;7.840;2022-09-20T15:08:35;3.27;;;1.20;;
21806;SDS011;11065;50.786;7.840;2022-09-20T15:11:02;1.50;;;0.70;;
21806;SDS011;11065;50.786;7.840;2022-09-20T15:13:29;1.53;;;0.80;;
21806;SDS011;11065;50.786;7.840;2022-09-20T15:15:56;3.23;;;1.00;;
21806;SDS011;11065;50.786;7.840;2022-09-20T15:20:53;2.07;;;0.90;;
21806;SDS011;11065;50.786;7.840;2022-09-20T15:23:20;2.20;;;0.97;;
21806;SDS011;11065;50.786;7.840;2022-09-20T15:25:51;3.57;;;0.90;;
21806;SDS011;11065;50.786;7.840;2022-09-20T15:28:19;1.50;;;0.83;;
21806;SDS011;11065;50.786;7.840;2022-09-20T15:30:47;3.13;;;0.90;;
21806;SDS011;11065;50.786;7.840;2022-09-20T15:33:16;2.00;;;1.00;;
21806;SDS011;11065;50.786;7.840;2022-09-20T15:35:43;2.07;;;1.00;;
21806;SDS011;11065;50.786;7.840;2022-09-20T15:38:11;2.50;;;1.10;;
21806;SDS011;11065;50.786;7.840;2022-09-20T15:40:43;3.10;;;0.97;;
21806;SDS011;11065;50.786;7.840;2022-09-20T15:43:13;1.30;;;0.80;;
21806;SDS011;11065;50.786;7.840;2022-09-20T15:45:47;3.23;;;1.20;;
21806;SDS011;11065;50.786;7.840;2022-09-20T15:48:16;5.10;;;1.23;;
21806;SDS011;11065;50.786;7.840;2022-09-20T15:51:02;2.30;;;0.97;;
21806;SDS011;11065;50.786;7.840;2022-09-20T15:53:33;2.47;;;0.90;;
21806;SDS011;11065;50.786;7.840;2022-09-20T15:56:02;3.97;;;0.80;;
21806;SDS011;11065;50.786;7.840;2022-09-20T15:58:31;1.97;;;0.80;;
21806;SDS011;11065;50.786;7.840;2022-09-20T16:01:05;1.83;;;0.80;;
21806;SDS011;11065;50.786;7.840;2022-09-20T16:03:34;3.17;;;1.00;;
21806;SDS011;11065;50.786;7.840;2022-09-20T16:06:02;2.77;;;0.90;;
21806;SDS011;11065;50.786;7.840;2022-09-20T16:08:31;2.63;;;0.77;;
21806;SDS011;11065;50.786;7.840;2022-09-20T16:10:59;3.57;;;1.00;;
21806;SDS011;11065;50.786;7.840;2022-09-20T16:13:26;2.93;;;0.90;;
21806;SDS011;11065;50.786;7.840;2022-09-20T16:15:54;1.93;;;0.70;;
21806;SDS011;11065;50.786;7.840;2022-09-20T16:18:22;3.27;;;0.87;;
21806;SDS011;11065;50.786;7.840;2022-09-20T16:21:09;1.97;;;0.60;;
21806;SDS011;11065;50.786;7.840;2022-09-20T16:23:38;2.00;;;0.70;;
21806;SDS011;11065;50.786;7.840;2022-09-20T16:26:07;3.37;;;0.80;;
21806;SDS011;11065;50.786;7.840;2022-09-20T16:28:41;2.10;;;0.70;;
21806;SDS011;11065;50.786;7.840;2022-09-20T16:34:21;2.37;;;0.70;;
21806;SDS011;11065;50.786;7.840;2022-09-20T16:36:49;2.77;;;1.13;;
21806;SDS011;11065;50.786;7.840;2022-09-20T16:39:18;2.87;;;0.83;;
21806;SDS011;11065;50.786;7.840;2022-09-20T16:41:46;2.07;;;0.73;;
21806;SDS011;11065;50.786;7.840;2022-09-20T16:44:14;1.53;;;1.20;;
21806;SDS011;11065;50.786;7.840;2022-09-20T16:46:41;2.90;;;0.77;;
21806;SDS011;11065;50.786;7.840;2022-09-20T16:49:09;2.50;;;0.70;;
21806;SDS011;11065;50.786;7.840;2022-09-20T16:51:38;1.63;;;0.60;;
21806;SDS011;11065;50.786;7.840;2022-09-20T16:54:07;3.10;;;0.80;;
21806;SDS011;11065;50.786;7.840;2022-09-20T16:56:40;1.53;;;0.60;;
21806;SDS011;11065;50.786;7.840;2022-09-20T16:59:11;1.83;;;0.50;;
21806;SDS011;11065;50.786;7.840;2022-09-20T17:01:41;2.17;;;0.60;;
21806;SDS011;11065;50.786;7.840;2022-09-20T17:04:09;1.73;;;0.53;;
21806;SDS011;11065;50.786;7.840;2022-09-20T17:06:39;2.03;;;0.70;;
21806;SDS011;11065;50.786;7.840;2022-09-20T17:09:08;1.73;;;0.63;;
21806;SDS011;11065;50.786;7.840;2022-09-20T17:11:45;2.57;;;0.70;;
21806;SDS011;11065;50.786;7.840;2022-09-20T17:14:15;1.73;;;0.60;;
21806;SDS011;11065;50.786;7.840;2022-09-20T17:16:43;2.60;;;0.70;;
21806;SDS011;11065;50.786;7.840;2022-09-20T17:19:15;3.53;;;0.77;;
21806;SDS011;11065;50.786;7.840;2022-09-20T17:21:45;2.93;;;1.10;;
21806;SDS011;11065;50.786;7.840;2022-09-20T17:24:16;3.03;;;0.70;;
21806;SDS011;11065;50.786;7.840;2022-09-20T17:26:44;3.60;;;1.37;;
21806;SDS011;11065;50.786;7.840;2022-09-20T17:29:12;1.70;;;0.83;;
21806;SDS011;11065;50.786;7.840;2022-09-20T17:31:42;2.77;;;1.00;;
21806;SDS011;11065;50.786;7.840;2022-09-20T17:34:17;3.10;;;0.83;;
21806;SDS011;11065;50.786;7.840;2022-09-20T17:36:47;2.23;;;0.90;;
21806;SDS011;11065;50.786;7.840;2022-09-20T17:39:15;2.97;;;1.10;;
21806;SDS011;11065;50.786;7.840;2022-09-20T17:41:43;2.43;;;1.10;;
21806;SDS011;11065;50.786;7.840;2022-09-20T17:44:11;4.37;;;1.07;;
21806;SDS011;11065;50.786;7.840;2022-09-20T17:46:40;4.60;;;1.30;;
21806;SDS011;11065;50.786;7.840;2022-09-20T17:49:12;2.37;;;0.90;;
21806;SDS011;11065;50.786;7.840;2022-09-20T17:51:40;4.13;;;1.30;;
21806;SDS011;11065;50.786;7.840;2022-09-20T17:54:12;2.07;;;1.00;;
21806;SDS011;11065;50.786;7.840;2022-09-20T17:56:40;3.77;;;0.93;;
21806;SDS011;11065;50.786;7.840;2022-09-20T17:59:12;2.93;;;1.00;;
21806;SDS011;11065;50.786;7.840;2022-09-20T18:01:41;2.43;;;1.13;;
21806;SDS011;11065;50.786;7.840;2022-09-20T18:04:09;3.87;;;1.90;;
21806;SDS011;11065;50.786;7.840;2022-09-20T18:06:38;5.23;;;2.33;;
21806;SDS011;11065;50.786;7.840;2022-09-20T18:09:13;5.90;;;3.27;;
21806;SDS011;11065;50.786;7.840;2022-09-20T18:11:42;6.10;;;3.60;;
21806;SDS011;11065;50.786;7.840;2022-09-20T18:14:11;6.13;;;3.27;;
21806;SDS011;11065;50.786;7.840;2022-09-20T18:16:38;6.00;;;3.47;;
21806;SDS011;11065;50.786;7.840;2022-09-20T18:19:06;5.67;;;3.13;;
21806;SDS011;11065;50.786;7.840;2022-09-20T18:21:34;4.33;;;2.50;;
21806;SDS011;11065;50.786;7.840;2022-09-20T18:24:05;5.50;;;2.60;;
21806;SDS011;11065;50.786;7.840;2022-09-20T18:26:34;4.43;;;2.13;;
21806;SDS011;11065;50.786;7.840;2022-09-20T18:31:39;4.53;;;2.50;;
21806;SDS011;11065;50.786;7.840;2022-09-20T18:34:14;11.23;;;8.43;;
21806;SDS011;11065;50.786;7.840;2022-09-20T18:36:48;10.43;;;8.70;;
21806;SDS011;11065;50.786;7.840;2022-09-20T18:39:19;10.07;;;7.23;;
21806;SDS011;11065;50.786;7.840;2022-09-20T18:41:47;8.67;;;5.57;;
21806;SDS011;11065;50.786;7.840;2022-09-20T18:44:15;4.60;;;3.80;;
21806;SDS011;11065;50.786;7.840;2022-09-20T18:46:43;3.57;;;2.57;;
21806;SDS011;11065;50.786;7.840;2022-09-20T18:49:14;3.83;;;2.00;;
21806;SDS011;11065;50.786;7.840;2022-09-20T18:51:42;3.83;;;1.53;;
21806;SDS011;11065;50.786;7.840;2022-09-20T18:54:09;4.33;;;1.60;;
21806;SDS011;11065;50.786;7.840;2022-09-20T18:56:38;3.47;;;1.60;;
21806;SDS011;11065;50.786;7.840;2022-09-20T18:59:09;5.83;;;1.63;;
21806;SDS011;11065;50.786;7.840;2022-09-20T19:15:11;2.30;;;1.27;;
21806;SDS011;11065;50.786;7.840;2022-09-20T19:18:01;4.40;;;1.60;;
21806;SDS011;11065;50.786;7.840;2022-09-20T19:21:14;1.90;;;1.10;;
21806;SDS011;11065;50.786;7.840;2022-09-20T19:23:57;2.77;;;1.00;;
21806;SDS011;11065;50.786;7.840;2022-09-20T19:26:42;2.83;;;1.63;;
21806;SDS011;11065;50.786;7.840;2022-09-20T19:29:19;4.03;;;2.13;;
21806;SDS011;11065;50.786;7.840;2022-09-20T19:31:50;2.70;;;1.63;;
21806;SDS011;11065;50.786;7.840;2022-09-20T19:34:25;2.73;;;1.67;;
21806;SDS011;11065;50.786;7.840;2022-09-20T19:37:01;3.43;;;1.87;;
21806;SDS011;11065;50.786;7.840;2022-09-20T19:39:57;3.97;;;1.83;;
21806;SDS011;11065;50.786;7.840;2022-09-20T19:45:53;2.70;;;1.67;;
21806;SDS011;11065;50.786;7.840;2022-09-20T19:48:34;3.80;;;1.57;;
21806;SDS011;11065;50.786;7.840;2022-09-20T19:51:05;2.83;;;1.70;;
21806;SDS011;11065;50.786;7.840;2022-09-20T19:53:36;3.03;;;1.37;;
21806;SDS011;11065;50.786;7.840;2022-09-20T19:56:22;3.57;;;1.60;;
21806;SDS011;11065;50.786;7.840;2022-09-20T19:58:51;2.80;;;1.17;;
21806;SDS011;11065;50.786;7.840;2022-09-20T20:01:20;2.47;;;1.67;;
21806;SDS011;11065;50.786;7.840;2022-09-20T20:03:48;3.07;;;1.70;;
21806;SDS011;11065;50.786;7.840;2022-09-20T20:06:39;3.77;;;2.03;;
21806;SDS011;11065;50.786;7.840;2022-09-20T20:12:34;3.50;;;2.17;;
21806;SDS011;11065;50.786;7.840;2022-09-20T20:15:12;3.53;;;2.23;;
21806;SDS011;11065;50.786;7.840;2022-09-20T20:20:31;5.83;;;1.97;;
21806;SDS011;11065;50.786;7.840;2022-09-20T20:26:06;5.13;;;2.20;;
21806;SDS011;11065;50.786;7.840;2022-09-20T20:28:35;3.13;;;1.63;;
21806;SDS011;11065;50.786;7.840;2022-09-20T20:31:02;5.03;;;1.90;;
21806;SDS011;11065;50.786;7.840;2022-09-20T20:33:29;4.43;;;1.80;;
21806;SDS011;11065;50.786;7.840;2022-09-20T20:35:58;2.83;;;1.60;;
21806;SDS011;11065;50.786;7.840;2022-09-20T20:38:26;4.37;;;1.77;;
21806;SDS011;11065;50.786;7.840;2022-09-20T20:41:00;3.07;;;1.20;;